Bluffton, Indiana
Current Conditions -  °F | °C
As of 6:35 PM on Monday 20 Oct 2014 (Local Time) from KHHG Reporting Station
Broken Clouds Broken Clouds  
Wind Chill: 60°   Ceiling: 6500
Heat Index: 60°   Visibility: 10mi
Dew Point: 48°   Wind: 5mph
Humidity: 66%   Direction: 320°NW
Pressure: 29.84"   Gusts: NA
Location:  40.74°N, 85.17°W
Report Text: KHHG 202235Z AUTO 32004KT 10SM SCT043 BKN065 BKN080 15/09 A2984 RMK AO2 T01530090
Loading
Personal Weather Stations






























Interactive Weather Map
Tropical Storm Tracking
New forecast layout! Learn more

10-Day Weather Forecast

Advertisements
Track Severe Weather on mobile